createdAt,value
2023-05-11T00:00:30.277Z,7.21
2023-05-11T00:05:32.986Z,6.98
2023-05-11T00:10:35.611Z,6.66
2023-05-11T00:15:38.303Z,6.45
2023-05-11T00:20:41.054Z,6.21
2023-05-11T00:25:43.679Z,5.88
2023-05-11T00:30:46.398Z,5.77
2023-05-11T00:35:49.466Z,5.56
2023-05-11T00:40:52.674Z,5.47
2023-05-11T00:45:55.462Z,5.52
2023-05-11T00:51:00.360Z,5.27
2023-05-11T00:56:03.949Z,5.24
2023-05-11T01:01:06.693Z,5.06
2023-05-11T01:06:19.951Z,5.08
2023-05-11T01:11:55.186Z,4.95
2023-05-11T01:17:04.091Z,4.85
2023-05-11T01:22:19.771Z,4.70
2023-05-11T01:27:59.208Z,4.34
2023-05-11T01:33:11.230Z,4.37
2023-05-11T01:38:16.169Z,4.29
2023-05-11T01:43:23.331Z,4.22
2023-05-11T01:48:29.440Z,3.88
2023-05-11T01:53:36.383Z,3.86
2023-05-11T01:58:42.218Z,3.87
2023-05-11T02:03:47.464Z,3.78
2023-05-11T02:08:53.777Z,3.64
2023-05-11T02:13:59.111Z,3.74
2023-05-11T02:19:03.628Z,3.57
2023-05-11T02:24:07.491Z,3.55
2023-05-11T02:29:11.795Z,3.60
2023-05-11T02:34:23.752Z,3.64
2023-05-11T02:39:34.317Z,3.61
2023-05-11T02:44:39.331Z,3.57
2023-05-11T02:49:43.894Z,3.44
2023-05-11T02:54:50.414Z,3.44
2023-05-11T02:59:53.808Z,3.48
2023-05-11T03:05:15.005Z,3.14
2023-05-11T03:10:18.099Z,3.10
2023-05-11T03:15:22.232Z,2.93
2023-05-11T03:20:28.504Z,3.19
2023-05-11T03:25:31.365Z,3.29
2023-05-11T03:30:34.942Z,3.26
2023-05-11T03:35:38.131Z,3.38
2023-05-11T03:40:42.871Z,3.26
2023-05-11T03:45:48.377Z,3.31
2023-05-11T03:50:52.070Z,3.26
2023-05-11T03:55:55.127Z,3.23
2023-05-11T04:00:58.078Z,3.49
2023-05-11T04:06:00.790Z,3.52
2023-05-11T04:11:04.055Z,3.67
2023-05-11T04:16:06.766Z,3.81
2023-05-11T04:21:09.774Z,4.06
2023-05-11T04:26:12.001Z,3.99
2023-05-11T04:31:14.695Z,4.20
2023-05-11T04:36:17.269Z,4.60
2023-05-11T04:41:21.009Z,4.86
2023-05-11T04:46:24.945Z,5.26
2023-05-11T04:51:27.914Z,5.37
2023-05-11T04:56:30.224Z,6.31
2023-05-11T05:01:33.092Z,7.55
2023-05-11T05:06:35.930Z,8.61
2023-05-11T05:11:38.932Z,9.38
2023-05-11T05:17:01.658Z,10.22
2023-05-11T05:22:05.623Z,11.10
2023-05-11T05:27:08.646Z,12.08
2023-05-11T05:32:11.476Z,12.86
2023-05-11T05:37:14.438Z,13.51
2023-05-11T05:42:16.916Z,14.25
2023-05-11T05:47:20.003Z,14.94
2023-05-11T05:52:23.125Z,15.49
2023-05-11T05:57:26.267Z,15.96
2023-05-11T06:02:29.398Z,16.56
2023-05-11T06:07:32.273Z,17.10
2023-05-11T06:12:34.851Z,17.63
2023-05-11T06:17:38.234Z,19.14
2023-05-11T06:22:41.032Z,21.15
2023-05-11T06:27:43.839Z,22.47
2023-05-11T06:32:46.460Z,21.94
2023-05-11T06:37:50.294Z,20.93
2023-05-11T06:42:53.470Z,21.12
2023-05-11T06:47:55.676Z,20.39
2023-05-11T06:52:59.208Z,21.18
2023-05-11T06:58:04.647Z,22.08
2023-05-11T07:03:07.946Z,21.20
2023-05-11T07:08:10.560Z,22.36
2023-05-11T07:13:13.394Z,21.47
2023-05-11T07:18:16.278Z,20.48
2023-05-11T07:23:18.355Z,20.25
2023-05-11T07:28:20.968Z,21.86
2023-05-11T07:33:24.287Z,21.40
2023-05-11T07:38:26.974Z,20.38
2023-05-11T07:43:29.716Z,20.34
2023-05-11T07:48:32.302Z,20.13
2023-05-11T07:53:35.507Z,19.87
2023-05-11T07:58:37.689Z,19.76
2023-05-11T08:03:40.257Z,19.47
2023-05-11T08:08:42.303Z,20.03
2023-05-11T08:13:44.951Z,19.85
2023-05-11T08:18:47.167Z,19.86
2023-05-11T08:23:49.830Z,20.01
2023-05-11T08:28:54.642Z,19.40
2023-05-11T08:33:57.373Z,19.88
2023-05-11T08:38:59.787Z,18.43
2023-05-11T08:44:03.104Z,18.76
2023-05-11T08:49:05.885Z,19.46
2023-05-11T08:54:08.719Z,20.22
2023-05-11T08:59:14.235Z,18.88
2023-05-11T09:04:18.827Z,18.33
2023-05-11T09:09:21.428Z,17.59
2023-05-11T09:19:29.652Z,19.67
2023-05-11T09:24:31.955Z,19.69
2023-05-11T09:29:34.566Z,18.24
2023-05-11T09:34:43.273Z,19.52
2023-05-11T09:40:14.104Z,19.01
2023-05-11T09:45:09.602Z,18.96
2023-05-11T09:50:18.881Z,20.34
2023-05-11T09:55:29.502Z,19.69
2023-05-11T10:00:32.814Z,18.41
2023-05-11T10:05:37.887Z,17.81
2023-05-11T10:10:40.807Z,17.80
2023-05-11T10:15:44.941Z,18.33
2023-05-11T10:20:47.997Z,19.07
2023-05-11T10:25:52.361Z,18.12
2023-05-11T10:30:55.322Z,18.03
2023-05-11T10:35:58.022Z,18.49
2023-05-11T10:41:13.438Z,17.96
2023-05-11T10:46:48.250Z,18.34
2023-05-11T10:52:18.002Z,18.12
2023-05-11T10:57:36.638Z,18.75
2023-05-11T11:02:39.661Z,18.16
2023-05-11T11:08:04.227Z,18.86
2023-05-11T11:13:12.349Z,18.62
2023-05-11T11:18:28.531Z,19.31
2023-05-11T11:23:44.253Z,19.44
2023-05-11T11:29:02.259Z,19.33
2023-05-11T11:34:29.678Z,18.72
2023-05-11T11:39:46.427Z,19.43
2023-05-11T11:44:49.364Z,19.92
2023-05-11T11:49:54.983Z,18.87
2023-05-11T11:55:01.412Z,18.74
2023-05-11T12:00:07.463Z,18.88
2023-05-11T12:05:22.846Z,18.61
2023-05-11T12:10:26.145Z,17.00
2023-05-11T12:15:30.747Z,16.73
2023-05-11T12:20:33.252Z,16.00
2023-05-11T12:25:35.943Z,16.24
2023-05-11T12:30:38.465Z,15.77
2023-05-11T12:35:41.537Z,16.17
2023-05-11T12:40:52.938Z,16.59
2023-05-11T12:45:55.792Z,15.92
2023-05-11T12:50:58.592Z,16.40
2023-05-11T12:56:01.019Z,15.81
2023-05-11T13:01:03.630Z,15.56
2023-05-11T13:06:07.519Z,15.75
2023-05-11T13:11:25.771Z,15.31
2023-05-11T13:16:31.306Z,15.11
2023-05-11T13:21:34.526Z,15.23
2023-05-11T13:26:37.232Z,15.38
2023-05-11T13:31:53.794Z,15.31
2023-05-11T13:36:57.006Z,14.78
2023-05-11T13:41:59.218Z,15.20
2023-05-11T13:47:02.029Z,15.08
2023-05-11T13:52:05.098Z,15.33
2023-05-11T13:57:07.960Z,15.12
2023-05-11T14:02:10.697Z,15.20
2023-05-11T14:07:14.609Z,15.04
2023-05-11T14:12:17.494Z,14.94
2023-05-11T14:17:20.133Z,14.70
2023-05-11T14:22:22.772Z,14.73
2023-05-11T14:27:25.532Z,14.15
2023-05-11T14:32:28.229Z,13.89
2023-05-11T14:37:30.426Z,14.32
2023-05-11T14:42:33.140Z,14.26
2023-05-11T14:47:36.217Z,14.45
2023-05-11T14:52:38.923Z,14.68
2023-05-11T14:57:41.393Z,14.73
2023-05-11T15:02:43.958Z,14.42
2023-05-11T15:07:46.094Z,14.07
2023-05-11T15:12:48.626Z,14.42
2023-05-11T15:17:51.376Z,13.95
2023-05-11T15:22:53.987Z,14.03
2023-05-11T15:27:56.745Z,13.77
2023-05-11T15:32:59.593Z,13.80
2023-05-11T15:38:02.224Z,13.82
2023-05-11T15:43:04.956Z,13.75
2023-05-11T15:48:07.937Z,13.47
2023-05-11T15:53:10.569Z,13.33
2023-05-11T15:58:14.025Z,13.15
2023-05-11T16:03:16.963Z,13.20
2023-05-11T16:08:19.831Z,12.89
2023-05-11T16:13:22.362Z,12.89
2023-05-11T16:18:24.947Z,12.71
2023-05-11T16:23:27.682Z,12.49
2023-05-11T16:28:30.290Z,12.34
2023-05-11T16:33:32.673Z,12.28
2023-05-11T16:38:35.996Z,12.27
2023-05-11T16:43:42.025Z,11.88
2023-05-11T16:48:44.294Z,12.02
2023-05-11T16:53:48.093Z,11.71
2023-05-11T16:58:50.282Z,11.64
2023-05-11T17:03:53.184Z,11.54
2023-05-11T17:08:55.912Z,11.52
2023-05-11T17:13:58.496Z,11.34
2023-05-11T17:19:04.118Z,11.33
2023-05-11T17:24:06.926Z,11.12
2023-05-11T17:29:10.140Z,10.87
2023-05-11T17:34:12.856Z,10.81
2023-05-11T17:39:16.720Z,10.71
2023-05-11T17:44:19.286Z,10.60
2023-05-11T17:49:21.485Z,10.51
2023-05-11T17:54:24.173Z,10.36
2023-05-11T17:59:28.212Z,10.31
2023-05-11T18:04:30.462Z,10.39
2023-05-11T18:09:32.954Z,10.41
2023-05-11T18:14:35.619Z,10.10
2023-05-11T18:19:38.688Z,9.95
2023-05-11T18:24:41.424Z,9.95
2023-05-11T18:29:45.212Z,9.98
2023-05-11T18:34:48.323Z,10.02
2023-05-11T18:39:51.159Z,9.78
2023-05-11T18:44:54.544Z,9.71
2023-05-11T18:49:57.576Z,9.68
2023-05-11T18:55:00.391Z,9.62
2023-05-11T19:00:02.580Z,9.48
2023-05-11T19:05:05.833Z,9.49
2023-05-11T19:10:09.008Z,9.54
2023-05-11T19:15:11.926Z,9.28
2023-05-11T19:20:15.089Z,9.42
2023-05-11T19:25:17.857Z,9.27
2023-05-11T19:30:20.427Z,9.17
2023-05-11T19:35:23.394Z,9.28
2023-05-11T19:40:45.169Z,9.38
2023-05-11T19:45:48.608Z,9.07
2023-05-11T19:50:51.721Z,9.23
2023-05-11T19:55:54.273Z,9.23
2023-05-11T20:00:56.810Z,9.15
2023-05-11T20:05:59.412Z,9.24
2023-05-11T20:11:02.557Z,9.13
2023-05-11T20:16:05.411Z,9.25
2023-05-11T20:21:08.007Z,9.18
2023-05-11T20:26:10.628Z,9.13
2023-05-11T20:31:13.281Z,9.13
2023-05-11T20:36:15.834Z,9.27
2023-05-11T20:41:17.979Z,9.08
2023-05-11T20:46:23.643Z,9.13
2023-05-11T20:51:26.473Z,9.15
2023-05-11T20:56:29.282Z,9.00
2023-05-11T21:01:32.028Z,9.05
2023-05-11T21:06:35.846Z,9.10
2023-05-11T21:11:38.404Z,8.92
2023-05-11T21:16:43.849Z,8.96
2023-05-11T21:21:49.692Z,8.82
2023-05-11T21:26:52.513Z,8.52
2023-05-11T21:31:55.884Z,8.83
2023-05-11T21:36:59.950Z,8.43
2023-05-11T21:42:03.781Z,8.75
2023-05-11T21:47:06.203Z,8.60
2023-05-11T21:52:08.908Z,8.56
2023-05-11T21:57:11.519Z,8.73
2023-05-11T22:02:14.131Z,8.70
2023-05-11T22:07:16.629Z,8.77
2023-05-11T22:12:19.696Z,8.42
2023-05-11T22:17:23.160Z,8.65
2023-05-11T22:22:25.889Z,8.63
2023-05-11T22:27:30.059Z,8.64
2023-05-11T22:32:32.272Z,8.71
2023-05-11T22:37:34.869Z,8.76
2023-05-11T22:42:38.293Z,8.79
2023-05-11T22:47:40.941Z,8.71
2023-05-11T22:52:43.557Z,8.80
2023-05-11T22:57:46.060Z,8.64
2023-05-11T23:02:48.956Z,8.74
2023-05-11T23:07:52.138Z,8.80
2023-05-11T23:12:55.493Z,8.62
2023-05-11T23:17:58.342Z,8.73
2023-05-11T23:23:01.063Z,8.80
2023-05-11T23:28:03.335Z,8.89
2023-05-11T23:33:06.278Z,8.80
2023-05-11T23:38:09.057Z,8.76
2023-05-11T23:43:11.667Z,8.85
2023-05-11T23:48:14.656Z,8.84
2023-05-11T23:53:17.310Z,8.89
2023-05-11T23:58:19.535Z,8.96
